Map

Track Data

SID SEASON NUMBER BASIN SUBBASIN NAME ISO_TIME NATURE LAT LON WMO_WIND WMO_PRES WMO_AGENCY TRACK_TYPE DIST2LAND LANDFALL IFLAG USA_AGENCY USA_ATCF_ID USA_LAT USA_LON USA_RECORD USA_STATUS USA_WIND USA_PRES USA_SSHS USA_R34_NE USA_R34_SE USA_R34_SW USA_R34_NW USA_R50_NE USA_R50_SE USA_R50_SW USA_R50_NW USA_R64_NE USA_R64_SE USA_R64_SW USA_R64_NW USA_POCI USA_ROCI USA_RMW USA_EYE TOKYO_LAT TOKYO_LON TOKYO_GRADE TOKYO_WIND TOKYO_PRES TOKYO_R50_DIR TOKYO_R50_LONG TOKYO_R50_SHORT TOKYO_R30_DIR TOKYO_R30_LONG TOKYO_R30_SHORT TOKYO_LAND CMA_LAT CMA_LON CMA_CAT CMA_WIND CMA_PRES HKO_LAT HKO_LON HKO_CAT HKO_WIND HKO_PRES NEWDELHI_LAT NEWDELHI_LON NEWDELHI_GRADE NEWDELHI_WIND NEWDELHI_PRES NEWDELHI_CI NEWDELHI_DP NEWDELHI_POCI REUNION_LAT REUNION_LON REUNION_TYPE REUNION_WIND REUNION_PRES REUNION_TNUM REUNION_CI REUNION_RMW REUNION_R34_NE REUNION_R34_SE REUNION_R34_SW REUNION_R34_NW REUNION_R50_NE REUNION_R50_SE REUNION_R50_SW REUNION_R50_NW REUNION_R64_NE REUNION_R64_SE REUNION_R64_SW REUNION_R64_NW BOM_LAT BOM_LON BOM_TYPE BOM_WIND BOM_PRES BOM_TNUM BOM_CI BOM_RMW BOM_R34_NE BOM_R34_SE BOM_R34_SW BOM_R34_NW BOM_R50_NE BOM_R50_SE BOM_R50_SW BOM_R50_NW BOM_R64_NE BOM_R64_SE BOM_R64_SW BOM_R64_NW BOM_ROCI BOM_POCI BOM_EYE BOM_POS_METHOD BOM_PRES_METHOD NADI_LAT NADI_LON NADI_CAT NADI_WIND NADI_PRES WELLINGTON_LAT WELLINGTON_LON WELLINGTON_WIND WELLINGTON_PRES DS824_LAT DS824_LON DS824_STAGE DS824_WIND DS824_PRES TD9636_LAT TD9636_LON TD9636_STAGE TD9636_WIND TD9636_PRES TD9635_LAT TD9635_LON TD9635_WIND TD9635_PRES TD9635_ROCI NEUMANN_LAT NEUMANN_LON NEUMANN_CLASS NEUMANN_WIND NEUMANN_PRES MLC_LAT MLC_LON MLC_CLASS MLC_WIND MLC_PRES USA_GUST BOM_GUST BOM_GUST_PER REUNION_GUST REUNION_GUST_PER USA_SEAHGT USA_SEARAD_NE USA_SEARAD_SE USA_SEARAD_SW USA_SEARAD_NW STORM_SPEED STORM_DIR
1959004S14124 1959 1 SI WA BERTHA 1959-01-04 01:00:00 NR -13.9000 123.800 998 bom main 170 155 ______O_______ -1 -13.9000 123.800 998 5 132
1959004S14124 1959 1 SI WA BERTHA 1959-01-04 03:00:00 NR -14.0190 123.934 main 155 126 ______P_______ -1 -14.0190 123.934 5 132
1959004S14124 1959 1 SI WA BERTHA 1959-01-04 06:00:00 NR -14.1950 124.132 main 126 99 ______P_______ -1 -14.1950 124.132 5 132
1959004S14124 1959 1 SI WA BERTHA 1959-01-04 09:00:00 NR -14.3643 124.322 main 99 76 ______P_______ -1 -14.3643 124.322 5 133
1959004S14124 1959 1 SI WA BERTHA 1959-01-04 12:00:00 NR -14.5233 124.500 main 76 54 ______P_______ -1 -14.5233 124.500 4 133
1959004S14124 1959 1 SI WA BERTHA 1959-01-04 15:00:00 NR -14.6682 124.660 main 54 39 ______P_______ -1 -14.6682 124.660 4 133
1959004S14124 1959 1 SI WA BERTHA 1959-01-04 18:00:00 NR -14.7951 124.797 main 39 24 ______P_______ -1 -14.7951 124.797 3 134
1959004S14124 1959 1 SI WA BERTHA 1959-01-04 21:00:00 NR -14.9002 124.906 main 24 24 ______P_______ -1 -14.9002 124.906 4 319
1959004S14124 1959 1 SI WA BERTHA 1959-01-04 23:00:00 NR -14.5651 124.589 main 64 76 ______P___O___ -1 -14.9563 124.961 -13.0000 123.100 2 21 317
1959004S14124 1959 1 SI WA BERTHA 1959-01-05 00:00:00 TS -14.1357 124.173 main 121 131 O_____P__OP___ jtwc_sh SH091959 -13.1000 123.200 -1 -14.9798 124.983 -13.1000 123.200 TC -13.0511 123.165 2 23 317
1959004S14124 1959 1 SI WA BERTHA 1959-01-05 01:00:00 TS -13.9926 124.043 992 bom main 145 145 P_____O__PP___ SH091959 -13.1554 123.267 -1 -15.0000 125.000 992 -13.1554 123.267 TC -13.1022 123.230 2 4 322
1959004S14124 1959 1 SI WA BERTHA 1959-01-05 03:00:00 TS -13.9648 124.038 main 145 136 P_____P__PP___ SH091959 -13.2625 123.400 -1 -15.0306 125.023 -13.2625 123.400 TC -13.2040 123.361 2 1 110
1959004S14124 1959 1 SI WA BERTHA 1959-01-05 06:00:00 TS -14.0278 124.141 main 136 111 O_____P__OP___ jtwc_sh SH091959 -13.4000 123.600 -1 -15.0551 125.034 -13.4000 123.600 TC -13.3552 123.559 2 3 120
1959004S14124 1959 1 SI WA BERTHA 1959-01-05 09:00:00 TS -14.0930 124.265 main 111 102 P_____P__PP___ SH091959 -13.5000 123.800 -1 -15.0595 125.034 -13.5000 123.800 TC -13.5034 123.762 2 3 117
1959004S14124 1959 1 SI WA BERTHA 1959-01-05 11:00:00 TS -14.1344 124.351 main 102 97 P_____P__PO___ SH091959 -13.5636 123.933 -1 -15.0544 125.036 -13.5636 123.933 TC -13.6000 123.900 2 3 117
1959004S14124 1959 1 SI WA BERTHA 1959-01-05 12:00:00 TS -14.1568 124.395 main 97 87 O_____P__OP___ jtwc_sh SH091959 -13.6000 124.000 -1 -15.0501 125.039 -13.6000 124.000 TC -13.6475 123.970 2 3 121
1959004S14124 1959 1 SI WA BERTHA 1959-01-05 15:00:00 TS -14.2407 124.535 main 87 63 P_____P__PP___ SH091959 -13.7500 124.200 -1 -15.0333 125.065 -13.7500 124.200 TC -13.7855 124.183 2 3 121
1959004S14124 1959 1 SI WA BERTHA 1959-01-05 18:00:00 TS -14.3260 124.687 main 63 39 O_____P__OP___ jtwc_sh SH091959 -13.9000 124.400 -1 -15.0152 125.128 -13.9000 124.400 TC -13.9142 124.391 2 4 116
1959004S14124 1959 1 SI WA BERTHA 1959-01-05 21:00:00 TS -14.3972 124.859 main 39 39 P_____P__PP___ SH091959 -14.0075 124.615 -1 -15.0022 125.246 -14.0075 124.615 TC -14.0307 124.584 2 4 113
1959004S14124 1959 1 SI WA BERTHA 1959-01-05 22:00:00 TS -14.4199 124.919 987 bom main 39 31 P_____O__PP___ SH091959 -14.0388 124.682 -1 -15.0000 125.300 987 -14.0388 124.682 TC -14.0663 124.643 2 4 111
1959004S14124 1959 1 SI WA BERTHA 1959-01-05 23:00:00 TS -14.4426 124.979 main 31 24 P_____P__PO___ SH091959 -14.0693 124.745 -1 -14.9979 125.362 986 -14.0693 124.745 TC -14.1000 124.700 1 4 113
1959004S14124 1959 1 SI WA BERTHA 1959-01-06 00:00:00 TS -14.4658 125.036 main 24 15 O_____P__OP___ jtwc_sh SH091959 -14.1000 124.800 -1 -14.9973 125.430 985 -14.1000 124.800 TC -14.1317 124.751 1 4 115
1959004S14124 1959 1 SI WA BERTHA 1959-01-06 01:00:00 TS -14.4920 125.090 985 bom main 15 11 P_____O__PP___ SH091959 -14.1359 124.845 -1 -15.0000 125.500 985 -14.1359 124.845 TC -14.1613 124.798 1 3 119
1959004S14124 1959 1 SI WA BERTHA 1959-01-06 03:00:00 TS -14.5485 125.194 main 11 0 P_____P__PP___ SH091959 -14.2075 124.915 -1 -15.0231 125.649 -14.2075 124.915 TC -14.2157 124.885 1 3 120
1959004S14124 1959 1 SI WA BERTHA 1959-01-06 06:00:00 TS -14.6371 125.349 main 0 0 O_____P__OP___ jtwc_sh SH091959 -14.3000 125.000 -1 -15.0964 125.896 -14.3000 125.000 TC -14.2881 125.004 1 4 119
1959004S14124 1959 1 SI WA BERTHA 1959-01-06 09:00:00 TS -14.7191 125.513 main 0 0 P_____P__PP___ SH091959 -14.3500 125.085 -1 -15.2081 126.162 -14.3500 125.085 TC -14.3552 125.119 1 4 117
1959004S14124 1959 1 SI WA BERTHA 1959-01-06 11:00:00 TS -14.7775 125.631 main 0 0 P_____P__PO___ SH091959 -14.3802 125.155 -1 -15.2998 126.345 -14.3802 125.155 TC -14.4000 125.200 1 4 118
1959004S14124 1959 1 SI WA BERTHA 1959-01-06 12:00:00 TS -14.8106 125.696 main 0 0 O_____P__OP___ jtwc_sh SH091959 -14.4000 125.200 -1 -15.3498 126.438 -14.4000 125.200 TC -14.4262 125.249 1 5 119
1959004S14124 1959 1 SI WA BERTHA 1959-01-06 15:00:00 TS -14.9298 125.917 main 0 0 P_____P__PP___ SH091959 -14.5000 125.400 -1 -15.5127 126.713 -14.5000 125.400 TC -14.5055 125.403 1 5 120
1959004S14124 1959 1 SI WA BERTHA 1959-01-06 18:00:00 TS -15.0520 126.135 main 0 0 O_____P__OP___ jtwc_sh SH091959 -14.6000 125.600 -1 -15.6884 126.978 -14.6000 125.600 TC -14.5830 125.559 1 4 121
1959004S14124 1959 1 SI WA BERTHA 1959-01-06 21:00:00 TS -15.1571 126.310 main 0 0 P_____P__PP___ SH091959 -14.6575 125.715 -1 -15.8683 127.223 -14.6575 125.715 TC -14.6557 125.709 1 4 123
1959004S14124 1959 1 SI WA BERTHA 1959-01-06 23:00:00 TS -15.2216 126.409 main 0 0 P_____P__PO___ SH091959 -14.6859 125.772 -1 -15.9863 127.370 -14.6859 125.772 TC -14.7000 125.800 2 3 124
1959004S14124 1959 1 SI WA BERTHA 1959-01-07 00:00:00 TS -15.2530 126.455 main 0 0 O_____P__OP___ jtwc_sh SH091959 -14.7000 125.800 -1 -16.0439 127.437 -14.7000 125.800 TC -14.7212 125.839 2 3 125
1959004S14124 1959 1 SI WA BERTHA 1959-01-07 01:00:00 TS -15.2860 126.501 990 bom main 0 0 P_____O__PP___ SH091959 -14.7167 125.833 -1 -16.1000 127.500 990 -14.7167 125.833 TC -14.7416 125.876 2 3 122
1959004S14124 1959 1 SI WA BERTHA 1959-01-07 03:00:00 TS -15.3284 126.581 main 0 0 P_____P__PP___ SH091959 -14.7500 125.900 -1 -16.0946 127.571 -14.7500 125.900 TC -14.7799 125.944 2 2 119
1959004S14124 1959 1 SI WA BERTHA 1959-01-07 06:00:00 TS -15.3867 126.687 main 0 0 O_____P__OP___ jtwc_sh SH091959 -14.8000 126.000 -1 -16.0648 127.646 -14.8000 126.000 TC -14.8312 126.039 2 2 121
1959004S14124 1959 1 SI WA BERTHA 1959-01-07 09:00:00 TS -15.4426 126.780 main 0 0 P_____P__PP___ SH091959 -14.8500 126.093 -1 -16.0353 127.693 -14.8500 126.093 TC -14.8750 126.133 2 2 122
1959004S14124 1959 1 SI WA BERTHA 1959-01-07 11:00:00 TS -15.4808 126.840 main 0 0 P_____P__PO___ SH091959 -14.8833 126.161 -1 -16.0304 127.716 -14.8833 126.161 TC -14.9000 126.200 1 2 123
1959004S14124 1959 1 SI WA BERTHA 1959-01-07 12:00:00 TS -15.4992 126.870 main 0 0 O_____P__OP___ jtwc_sh SH091959 -14.9000 126.200 -1 -16.0356 127.725 -14.9000 126.200 TC -14.9043 126.231 1 2 125
1959004S14124 1959 1 SI WA BERTHA 1959-01-07 15:00:00 TS -15.5617 126.966 main 0 0 P_____P__PP___ SH091959 -14.9575 126.342 -1 -16.0952 127.755 -14.9575 126.342 TC -14.9085 126.326 1 2 126
1959004S14124 1959 1 SI WA BERTHA 1959-01-07 18:00:00 TS -15.6314 127.064 main 0 0 O_____P__OP___ jtwc_sh SH091959 -15.0000 126.500 -1 -16.2434 127.795 -15.0000 126.500 TC -14.9169 126.438 1 2 128
1959004S14124 1959 1 SI WA BERTHA 1959-01-07 21:00:00 TS -15.7001 127.155 main 0 0 P_____P__PP___ SH091959 -14.9850 126.635 -1 -16.5099 127.858 -14.9850 126.635 TC -14.9516 126.580 1 2 131
1959004S14124 1959 1 SI WA BERTHA 1959-01-07 23:00:00 TS -15.7667 127.225 main 0 0 P_____P__PO___ SH091959 -14.9855 126.739 -1 -16.7678 127.919 -14.9855 126.739 TC -15.0000 126.700 1 3 136
1959004S14124 1959 1 SI WA BERTHA 1959-01-08 00:00:00 TS -15.8112 127.267 main 0 0 O_____P__OP___ jtwc_sh SH091959 -15.0000 126.800 -1 -16.9240 127.957 -15.0000 126.800 TC -15.0322 126.778 1 4 140
1959004S14124 1959 1 SI WA BERTHA 1959-01-08 01:00:00 TS -15.8631 127.309 991 bom main 0 0 P_____O__PP___ SH091959 -15.0276 126.869 -1 -17.1000 128.000 991 -15.0276 126.869 TC -15.0695 126.862 1 4 143
1959004S14124 1959 1 SI WA BERTHA 1959-01-08 03:00:00 TS -15.9880 127.402 991 bom main 0 0 P_____O__PP___ SH091959 -15.1125 127.028 -1 -17.5000 128.100 991 -15.1125 127.028 TC -15.1591 127.046 1 4 145
1959004S14124 1959 1 SI WA BERTHA 1959-01-08 06:00:00 TS -16.1449 127.513 main 0 0 O_____P__OP___ jtwc_sh SH091959 -15.3000 127.300 -1 -17.8270 128.068 -15.3000 127.300 TC -15.3292 127.342 1 3 146
1959004S14124 1959 1 SI WA BERTHA 1959-01-08 09:00:00 TS -16.2562 127.590 main 0 0 P_____P__PP___ SH091959 -15.5275 127.607 -1 -17.8396 127.835 -15.5275 127.607 TC -15.5392 127.629 1 2 150
1959004S14124 1959 1 SI WA BERTHA 1959-01-08 11:00:00 TS -16.3155 127.617 main 0 0 P_____P__PO___ SH091959 -15.7057 127.809 -1 -17.7138 127.602 -15.7057 127.809 TC -15.7000 127.800 1 2 156
1959004S14124 1959 1 SI WA BERTHA 1959-01-08 12:00:00 TS -16.3447 127.626 main 0 0 O_____P__OP___ jtwc_sh SH091959 -15.8000 127.900 -1 -17.6198 127.469 -15.8000 127.900 TC -15.8016 127.894 1 2 166
1959004S14124 1959 1 SI WA BERTHA 1959-01-08 15:00:00 TS -16.4242 127.629 main 0 0 P_____P__PP___ SH091959 -16.0925 128.137 -1 -17.2498 127.039 -16.0925 128.137 TC -16.1416 128.159 1 2 188
1959004S14124 1959 1 SI WA BERTHA 1959-01-08 18:00:00 TS -16.4966 127.598 main 0 0 O_____P__OP___ jtwc_sh SH091959 -16.4000 128.300 -1 -16.8126 126.612 -16.4000 128.300 TC -16.4859 128.358 1 2 205
1959004S14124 1959 1 SI WA BERTHA 1959-01-08 21:00:00 TS -16.5802 127.561 main 0 0 P_____P__PP___ SH091959 -16.7523 128.448 -1 -16.3916 126.255 -16.7523 128.448 TC -16.7721 128.439 1 2 216
1959004S14124 1959 1 SI WA BERTHA 1959-01-08 23:00:00 TS -16.6165 127.503 main 0 0 P_____P__PO___ SH091959 -16.9398 128.448 -1 -16.1612 126.088 -16.9398 128.448 TC -16.9000 128.400 2 2 248
1959004S14124 1959 1 SI WA BERTHA 1959-01-09 00:00:00 TS -16.6221 127.452 main 0 0 O_____P__OP___ jtwc_sh SH091959 -17.0000 128.400 -1 -16.0704 126.033 -17.0000 128.400 TC -16.9403 128.327 2 3 269
1959004S14124 1959 1 SI WA BERTHA 1959-01-09 01:00:00 TS -16.6186 127.385 992 bom main 0 0 P_____O__PP___ SH091959 -17.0313 128.305 -1 -16.0000 126.000 992 -17.0313 128.305 TC -16.9677 128.230 2 4 277
1959004S14124 1959 1 SI WA BERTHA 1959-01-09 03:00:00 TS -16.5952 127.223 main 0 0 P_____P__PP___ SH091959 -17.0252 128.018 -1 -15.9497 126.020 992 -17.0252 128.018 TC -16.9849 127.981 2 5 285
1959004S14124 1959 1 SI WA BERTHA 1959-01-09 06:00:00 TS -16.5042 126.945 993 bom main 0 0 O_____O__OP___ jtwc_sh SH091959 -16.9000 127.500 -1 -15.9000 126.100 993 -16.9000 127.500 TC -16.9212 127.525 2 6 291
1959004S14124 1959 1 SI WA BERTHA 1959-01-09 09:00:00 TS -16.3988 126.681 main 0 0 P_____P__PP___ SH091959 -16.7600 127.055 -1 -15.8677 126.129 -16.7600 127.055 TC -16.7586 127.061 2 5 297
1959004S14124 1959 1 SI WA BERTHA 1959-01-09 11:00:00 TS -16.2987 126.532 main 0 0 P_____P__PO___ SH091959 -16.6031 126.802 -1 -15.8573 126.140 -16.6031 126.802 TC -16.6000 126.800 1 5 309
1959004S14124 1959 1 SI WA BERTHA 1959-01-09 12:00:00 TS -16.2358 126.476 main 0 0 O_____P__OP___ jtwc_sh SH091959 -16.5000 126.700 -1 -15.8544 126.145 -16.5000 126.700 TC -16.4991 126.714 1 5 334
1959004S14124 1959 1 SI WA BERTHA 1959-01-09 15:00:00 TS -15.9823 126.370 main 0 0 P_____P__PP___ SH091959 -16.0574 126.498 -1 -15.8512 126.172 -16.0574 126.498 TC -16.1238 126.514 1 5 345
1959004S14124 1959 1 SI WA BERTHA 1959-01-09 18:00:00 TS -15.7148 126.334 main 0 0 O_____P__OP___ jtwc_sh SH091959 -15.6000 126.400 -1 -15.8492 126.229 -15.6000 126.400 TC -15.7004 126.388 1 5 358
1959004S14124 1959 1 SI WA BERTHA 1959-01-09 21:00:00 TS -15.5096 126.341 main 0 0 P_____P__PP___ SH091959 -15.2900 126.328 -1 -15.8398 126.337 -15.2900 126.328 TC -15.3071 126.320 1 4 9
1959004S14124 1959 1 SI WA BERTHA 1959-01-09 23:00:00 TS -15.4069 126.377 main 0 0 P_____P__PO___ SH091959 -15.1500 126.306 -1 -15.8249 126.449 -15.1500 126.306 TC -15.1000 126.300 1 3 20
1959004S14124 1959 1 SI WA BERTHA 1959-01-10 00:00:00 TS -15.3707 126.401 main 0 0 O_____P__OP___ jtwc_sh SH091959 -15.1000 126.300 -1 -15.8138 126.519 -15.1000 126.300 TC -15.0397 126.287 1 3 41
1959004S14124 1959 1 SI WA BERTHA 1959-01-10 01:00:00 TS -15.3401 126.430 994 bom main 0 0 P_____O__PP___ SH091959 -15.0605 126.292 -1 -15.8000 126.600 994 -15.0605 126.292 TC -14.9924 126.280 1 3 56
1959004S14124 1959 1 SI WA BERTHA 1959-01-10 03:00:00 TS -15.2999 126.511 main 0 0 P_____P__PP___ SH091959 -15.0200 126.285 -1 -15.7726 126.817 994 -15.0200 126.285 TC -14.9306 126.281 1 3 71
1959004S14124 1959 1 SI WA BERTHA 1959-01-10 06:00:00 TS -15.2616 126.668 main 0 0 O_____P__OP___ jtwc_sh SH091959 -15.0000 126.300 -1 -15.7152 127.198 994 -15.0000 126.300 TC -14.8973 126.311 1 3 75
1959004S14124 1959 1 SI WA BERTHA 1959-01-10 09:00:00 TS -15.2079 126.856 main 0 0 P_____P__PP___ SH091959 -14.9500 126.350 -1 -15.6281 127.608 994 -14.9500 126.350 TC -14.8992 126.362 1 4 72
1959004S14124 1959 1 SI WA BERTHA 1959-01-10 11:00:00 TS -15.1644 126.983 main 0 0 P_____P__PO___ SH091959 -14.9167 126.386 -1 -15.5479 127.874 994 -14.9167 126.386 TC -14.9000 126.400 2 4 67
1959004S14124 1959 1 SI WA BERTHA 1959-01-10 12:00:00 TS -15.1347 127.038 994 bom main 0 0 O_____O__OP___ jtwc_sh SH091959 -14.9000 126.400 -1 -15.5000 128.000 994 -14.9000 126.400 TC -14.8734 126.392 2 3 38
1959004S14124 1959 1 SI WA BERTHA 1959-01-10 15:00:00 TS -15.0093 127.114 main 0 0 P_____P__PP___ SH091959 -14.8500 126.385 -1 -15.2520 128.104 994 -14.8500 126.385 TC -14.7894 126.367 2 3 35
1959004S14124 1959 1 SI WA BERTHA 1959-01-10 18:00:00 TS -14.8807 127.223 main 0 0 O_____P__OP___ jtwc_sh SH091959 -14.8000 126.400 -1 -14.9945 128.268 995 -14.8000 126.400 TC -14.7189 126.375 2 4 53
1959004S14124 1959 1 SI WA BERTHA 1959-01-10 21:00:00 TS -14.7739 127.444 main 0 0 P_____P__PP___ SH091959 -14.7274 126.483 -1 -14.8224 128.735 995 -14.7274 126.483 TC -14.6872 126.467 2 5 69
1959004S14124 1959 1 SI WA BERTHA 1959-01-10 22:00:00 TS -14.7535 127.558 996 bom main 0 0 P_____O__PP___ SH091959 -14.7095 126.536 -1 -14.8000 129.000 996 -14.7095 126.536 TC -14.6896 126.525 2 7 83
1959004S14124 1959 1 SI WA BERTHA 1959-01-10 23:00:00 TS -14.7438 127.697 main 0 0 P_____P__PO___ SH091959 -14.6994 126.608 -1 -14.7978 129.328 996 -14.6994 126.608 TC -14.7000 126.600 2 5 83
1959004S14124 1959 1 SI WA BERTHA 1959-01-10 23:30:00 TS -14.7393 127.684 996 bom main 0 0 P_____O__PP___ SH091959 -14.6982 126.651 -1 -14.8000 129.500 996 -14.6982 126.651 TC -14.7054 126.650 2 3 280
1959004S14124 1959 1 SI WA BERTHA 1959-01-11 00:00:00 TS -14.7367 127.652 main 0 0 O________OP___ jtwc_sh SH091959 -14.7000 126.700 -1 -14.7000 126.700 TC -14.7123 126.704 2 5 101
1959004S14124 1959 1 SI WA BERTHA 1959-01-11 03:00:00 TS -14.8005 128.008 main 0 0 P________PP___ SH091959 -14.7551 127.098 -1 -14.7551 127.098 TC -14.7887 127.110 2 6 110
1959004S14124 1959 1 SI WA BERTHA 1959-01-11 06:00:00 TS -14.9400 128.234 main 10 0 O________OP___ jtwc_sh SH091959 -14.9000 127.600 -1 -14.9000 127.600 TC -14.9262 127.612 2 7 120
1959004S14124 1959 1 SI WA BERTHA 1959-01-11 09:00:00 TS -15.1409 128.608 main 0 0 P________PP___ SH091959 -15.0976 128.115 -1 -15.0976 128.115 TC -15.1280 128.150 2 7 127
1959004S14124 1959 1 SI WA BERTHA 1959-01-11 11:00:00 TS -15.3113 128.739 main 0 0 P________PO___ SH091959 -15.2860 128.448 -1 -15.2860 128.448 TC -15.3000 128.500 2 5 0
1959004S14124 1959 1 SI WA BERTHA 1959-01-11 12:00:00 TS -15.4035 128.611 main 0 0 O________OP___ jtwc_sh SH091959 -15.4000 128.600 -1 -15.4000 128.600 TC -15.4104 128.633 2 9 157
1959004S14124 1959 1 SI WA BERTHA 1959-01-11 15:00:00 TS -15.8324 128.967 main 0 0 P________PP___ SH091959 -15.8497 128.943 -1 -15.8497 128.943 TC -15.7980 129.017 2 11 141
1959004S14124 1959 1 SI WA BERTHA 1959-01-11 18:00:00 TS -16.2724 129.336 main 0 0 O________OP___ jtwc_sh SH091959 -16.3000 129.300 -1 -16.3000 129.300 TC -16.2172 129.408 2 11 134
1959004S14124 1959 1 SI WA BERTHA 1959-01-11 21:00:00 TS -16.6064 129.811 main 0 0 P________PP___ SH091959 -16.6098 129.790 -1 -16.6098 129.790 TC -16.5995 129.853 2 11 121
1959004S14124 1959 1 SI WA BERTHA 1959-01-11 23:00:00 TS -16.7666 130.189 main 0 0 P________PO___ SH091959 -16.7498 130.183 -1 -16.7498 130.183 TC -16.8000 130.200 2 12 112
1959004S14124 1959 1 SI WA BERTHA 1959-01-11 23:30:00 TS -16.7950 130.293 998 bom main 0 0 P________PP___ SH091959 -16.7766 130.290 -1 -16.7766 130.290 TC -16.8319 130.299 2 13 105
1959004S14124 1959 1 SI WA BERTHA 1959-01-12 00:00:00 TS -16.8201 130.401 main 0 0 O________OP___ jtwc_sh SH091959 -16.8000 130.400 -1 -16.8000 130.400 TC -16.8604 130.402 2 14 98
1959004S14124 1959 1 SI WA BERTHA 1959-01-12 03:00:00 TS -16.9100 131.110 main 0 0 P________PP___ SH091959 -16.8801 131.128 -1 -16.8801 131.128 TC -16.9699 131.073 2 14 95
1959004S14124 1959 1 SI WA BERTHA 1959-01-12 06:00:00 TS -16.9344 131.871 main 0 0 O________OP___ jtwc_sh SH091959 -16.9000 131.900 -1 -16.9000 131.900 TC -17.0032 131.814 2 14 92
1959004S14124 1959 1 SI WA BERTHA 1959-01-12 09:00:00 TS -16.9667 132.595 main 0 0 P________PP___ SH091959 -16.9496 132.600 -1 -16.9496 132.600 TC -17.0009 132.586 2 14 93
1959004S14124 1959 1 SI WA BERTHA 1959-01-12 11:00:00 TS -16.9887 133.076 main 0 0 P________PO___ SH091959 -16.9831 133.064 -1 -16.9831 133.064 TC -17.0000 133.100 1 14 93
1959004S14124 1959 1 SI WA BERTHA 1959-01-12 12:00:00 TS -17.0046 133.314 main 0 0 O________OP___ jtwc_sh SH091959 -17.0000 133.300 -1 -17.0000 133.300 TC -17.0139 133.342 1 14 94
1959004S14124 1959 1 SI WA BERTHA 1959-01-12 15:00:00 TS -17.0516 134.056 main 0 0 P________PP___ SH091959 -17.0499 134.050 -1 -17.0499 134.050 TC -17.0549 134.067 1 14 94
1959004S14124 1959 1 SI WA BERTHA 1959-01-12 18:00:00 TS -17.0999 134.797 main 0 0 O________OP___ jtwc_sh SH091959 -17.1000 134.800 -1 -17.1000 134.800 TC -17.0997 134.792 1 14 94
1959004S14124 1959 1 SP EA BERTHA 1959-01-12 21:00:00 TS -17.1463 135.506 main 0 0 P________PP___ SH091959 -17.1421 135.500 -1 -17.1421 135.500 TC -17.1547 135.517 1 14 94
1959004S14124 1959 1 SP EA BERTHA 1959-01-12 23:00:00 TS -17.1849 135.976 998 bom main 0 0 P________PO___ SH091959 -17.1774 135.964 -1 -17.1774 135.964 TC -17.2000 136.000 1 24 98
1959004S14124 1959 1 SP EA BERTHA 1959-01-13 00:00:00 TS -17.3206 136.742 main 0 0 O________OP___ jtwc_sh SH091959 -17.2000 136.200 -1 -17.2000 136.200 TC -17.2202 136.243 1 26 99
1959004S14124 1959 1 SP EA BERTHA 1959-01-13 03:00:00 TS -17.4718 137.783 main 0 0 P________PP___ SH091959 -17.2849 136.950 -1 -17.2849 136.950 TC -17.2896 136.973 1 18 99
1959004S14124 1959 1 SP EA BERTHA 1959-01-13 06:00:00 TS -17.6098 138.652 main 0 0 O________OP___ jtwc_sh SH091959 -17.4000 137.700 -1 -17.4000 137.700 TC -17.3794 137.700 1 15 100
1959004S14124 1959 1 SP EA BERTHA 1959-01-13 09:00:00 TS -17.7397 139.368 main 0 0 P________PP___ SH091959 -17.5346 138.400 -1 -17.5346 138.400 TC -17.4991 138.423 1 12 101
1959004S14124 1959 1 SP EA BERTHA 1959-01-13 11:00:00 TS -17.8130 139.707 main 0 0 P________PO___ SH091959 -17.6414 138.864 -1 -17.6414 138.864 TC -17.6000 138.900 2 10 103
1959004S14124 1959 1 SP EA BERTHA 1959-01-13 12:00:00 TS -17.8543 139.885 main 0 0 O________OP___ jtwc_sh SH091959 -17.7000 139.100 -1 -17.7000 139.100 TC -17.6537 139.180 2 11 105
1959004S14124 1959 1 SP EA BERTHA 1959-01-13 15:00:00 TS -17.9981 140.437 main 0 0 P________PP___ SH091959 -17.8850 139.865 -1 -17.8850 139.865 TC -17.8405 140.035 2 11 108
1959004S14124 1959 1 SP EA BERTHA 1959-01-13 18:00:00 TS -18.1817 140.955 main 0 0 O________OP___ jtwc_sh SH091959 -18.1000 140.600 -1 -18.1000 140.600 TC -18.0619 140.824 2 10 113
1959004S14124 1959 1 SP EA BERTHA 1959-01-13 21:00:00 TS -18.3948 141.431 main 0 0 P________PP___ SH091959 -18.3051 141.327 -1 -18.3051 141.327 TC -18.3149 141.440 2 9 120
1959004S14124 1959 1 SP EA BERTHA 1959-01-13 23:00:00 TS -18.5755 141.668 999 bom main 0 0 P_____O__PO___ SH091959 -18.4856 141.688 -1 -18.7000 141.600 999 -18.4856 141.688 TC -18.5000 141.700 1 8 135
1959004S14124 1959 1 SP EA BERTHA 1959-01-14 00:00:00 TS -18.6920 141.749 main 0 0 O_____P__OP___ jtwc_sh SH091959 -18.6000 141.800 -1 -18.8485 141.693 998 -18.6000 141.800 TC -18.6237 141.760 1 9 164
1959004S14124 1959 1 SP EA BERTHA 1959-01-14 03:00:00 TS -19.1452 141.841 main 0 0 P_____P__PP___ SH091959 -19.1296 141.851 -1 -19.2749 141.922 997 -19.1296 141.851 TC -19.0304 141.743 1 9 178
1959004S14124 1959 1 SP EA BERTHA 1959-01-14 05:00:00 TS -19.4294 141.782 997 bom main 0 0 P_____O__PP___ SH091959 -19.4714 141.705 -1 -19.5000 142.000 997 -19.4714 141.705 TC -19.2985 141.604 1 8 196
1959004S14124 1959 1 SP EA BERTHA 1959-01-14 06:00:00 TS -19.5407 141.721 main 0 0 O_____P__OP___ jtwc_sh SH091959 -19.6000 141.600 -1 -19.5816 141.998 -19.6000 141.600 TC -19.4218 141.507 1 6 228
1959004S14124 1959 1 SP EA BERTHA 1959-01-14 09:00:00 TS -19.7178 141.446 main 0 0 P_____P__PP___ SH091959 -19.7627 141.238 -1 -19.7124 141.850 -19.7627 141.238 TC -19.7095 141.153 1 6 249
1959004S14124 1959 1 SP EA BERTHA 1959-01-14 11:00:00 TS -19.7295 141.200 main 0 0 P_____P__PO___ SH091959 -19.7413 140.943 -1 -19.7149 141.653 -19.7413 140.943 TC -19.8000 140.900 1 7 272
1959004S14124 1959 1 SP EA BERTHA 1959-01-14 12:00:00 TS -19.7029 141.074 main 0 0 O_____P__OP___ jtwc_sh SH091959 -19.7000 140.800 -1 -19.6938 141.532 -19.7000 140.800 TC -19.7890 140.794 1 8 292
1959004S14124 1959 1 SP EA BERTHA 1959-01-14 15:00:00 TS -19.5367 140.685 main 0 0 P_____P__PP___ SH091959 -19.5025 140.420 -1 -19.5536 141.106 -19.5025 140.420 TC -19.6236 140.448 1 9 301
1959004S14124 1959 1 SP EA BERTHA 1959-01-14 18:00:00 TS -19.2637 140.304 main 0 0 O_____P__OP___ jtwc_sh SH091959 -19.2000 140.100 -1 -19.3198 140.633 -19.2000 140.100 TC -19.3178 140.104 1 9 311
1959004S14124 1959 1 SP EA BERTHA 1959-01-14 21:00:00 TS -18.9541 139.965 main 0 0 P_____P__PP___ SH091959 -18.9000 139.840 -1 -19.0210 140.171 -18.9000 139.840 TC -18.9466 139.824 1 9 317
1959004S14124 1959 1 SP EA BERTHA 1959-01-14 23:00:00 TS -18.7391 139.793 998 bom main 0 0 P_____O__PO___ SH091959 -18.6969 139.730 -1 -18.8000 139.900 998 -18.6969 139.730 TC -18.7000 139.700 1 8 325
1959004S14124 1959 1 SP EA BERTHA 1959-01-15 00:00:00 TS -18.6373 139.727 main 0 0 O_____P__OP___ jtwc_sh SH091959 -18.6000 139.700 -1 -18.6795 139.753 998 -18.6000 139.700 TC -18.6070 139.683 1 7 335
1959004S14124 1959 1 SP EA BERTHA 1959-01-15 03:00:00 TS -18.3434 139.603 main 0 0 P_____P__PP___ SH091959 -18.3500 139.705 -1 -18.3026 139.385 998 -18.3500 139.705 TC -18.3277 139.715 1 6 346
1959004S14124 1959 1 SP EA BERTHA 1959-01-15 05:00:00 TS -18.1602 139.603 998 bom main 0 0 P_____O__PP___ SH091959 -18.1864 139.765 -1 -18.1000 139.300 998 -18.1864 139.765 TC -18.1423 139.784 1 5 10
1959004S14124 1959 1 SP EA BERTHA 1959-01-15 06:00:00 TS -18.0792 139.635 main 0 0 O_____P__OP___ jtwc_sh SH091959 -18.1000 139.800 -1 -18.0456 139.352 997 -18.1000 139.800 TC -18.0502 139.825 1 6 35
1959004S14124 1959 1 SP EA BERTHA 1959-01-15 09:00:00 TS -17.8560 139.827 main 0 0 P_____P__PP___ SH091959 -17.8075 139.915 -1 -17.9621 139.726 994 -17.8075 139.915 TC -17.7776 139.946 1 6 40
1959004S14124 1959 1 SP EA BERTHA 1959-01-15 11:00:00 TS -17.7091 139.969 992 bom main 0 0 P_____O__PO___ SH091959 -17.6026 139.981 -1 -17.9000 140.000 992 -17.6026 139.981 TC -17.6000 140.000 1 6 39
1959004S14124 1959 1 SP EA BERTHA 1959-01-15 12:00:00 TS -17.6266 140.015 main 11 11 O_____P__OP___ jtwc_sh SH091959 -17.5000 140.000 -1 -17.8246 140.069 992 -17.5000 140.000 TC -17.5083 140.007 1 6 13
1959004S14124 1959 1 SP EA BERTHA 1959-01-15 15:00:00 TS -17.3496 140.055 main 44 39 P_____P__PP___ SH091959 -17.1775 139.987 -1 -17.5188 140.172 992 -17.1775 139.987 TC -17.2368 140.002 1 6 0
1959004S14124 1959 1 SP EA BERTHA 1959-01-15 18:00:00 TS -17.0765 140.003 main 59 59 O_____P__OP___ jtwc_sh SH091959 -16.9000 139.900 -1 -17.1390 140.145 992 -16.9000 139.900 TC -16.9778 139.944 1 5 342
1959004S14124 1959 1 SP EA BERTHA 1959-01-15 21:00:00 TS -16.8451 139.886 main 77 67 P_____P__PP___ SH091959 -16.7274 139.788 -1 -16.7436 140.021 992 -16.7274 139.788 TC -16.7410 139.823 1 5 328
1959004S14124 1959 1 SP EA BERTHA 1959-01-15 23:00:00 TS -16.7093 139.765 992 bom main 72 62 P_____O__PO___ SH091959 -16.6421 139.672 -1 -16.5000 139.900 992 -16.6421 139.672 TC -16.6000 139.700 2 5 316
1959004S14124 1959 1 SP EA BERTHA 1959-01-16 00:00:00 TS -16.6509 139.693 main 62 59 O_____P__OP___ jtwc_sh SH091959 -16.6000 139.600 -1 -16.4180 139.840 -16.6000 139.600 TC -16.5367 139.621 2 6 305
1959004S14124 1959 1 SP EA BERTHA 1959-01-16 03:00:00 TS -16.4778 139.424 main 59 59 P_____P__PP___ SH091959 -16.4500 139.330 -1 -16.2132 139.602 -16.4500 139.330 TC -16.3688 139.329 2 7 300
1959004S14124 1959 1 SP EA BERTHA 1959-01-16 06:00:00 TS -16.3188 139.096 main 67 64 O_____P__OP___ jtwc_sh SH091959 -16.3000 139.000 -1 -16.0598 139.292 -16.3000 139.000 TC -16.2240 138.984 2 7 295
1959004S14124 1959 1 SP EA BERTHA 1959-01-16 09:00:00 TS -16.1687 138.739 main 67 67 P_____P__PP___ SH091959 -16.1500 138.643 -1 -15.9444 138.935 -16.1500 138.643 TC -16.0897 138.626 2 7 293
1959004S14124 1959 1 SP EA BERTHA 1959-01-16 11:00:00 TS -16.0712 138.500 main 77 77 P_____P__PO___ SH091959 -16.0500 138.408 -1 -15.8820 138.682 -16.0500 138.408 TC -16.0000 138.400 1 7 293
1959004S14124 1959 1 SP EA BERTHA 1959-01-16 12:00:00 TS -16.0227 138.387 main 77 54 O_____P__OP___ jtwc_sh SH091959 -16.0000 138.300 -1 -15.8537 138.554 -16.0000 138.300 TC -15.9537 138.298 1 7 295
1959004S14124 1959 1 SP EA BERTHA 1959-01-16 15:00:00 TS -15.8815 138.074 main 54 46 P_____P__PP___ SH091959 -15.8574 138.035 -1 -15.7745 138.173 -15.8574 138.035 TC -15.8163 138.005 1 6 297
1959004S14124 1959 1 SP EA BERTHA 1959-01-16 18:00:00 TS -15.7333 137.790 main 56 49 O_____P__OP___ jtwc_sh SH091959 -15.7000 137.800 -1 -15.6939 137.815 -15.7000 137.800 TC -15.6739 137.741 1 6 300
1959004S14124 1959 1 SP EA BERTHA 1959-01-16 21:00:00 TS -15.5687 137.518 main 55 55 P_____P__PP___ SH091959 -15.5150 137.527 -1 -15.5991 137.505 -15.5150 137.527 TC -15.5171 137.519 1 6 305
1959004S14124 1959 1 SP EA BERTHA 1959-01-16 23:00:00 TS -15.4474 137.366 main 70 68 P_____P__PO___ SH091959 -15.3750 137.366 -1 -15.5217 137.336 -15.3750 137.366 TC -15.4000 137.400 1 6 311
1959004S14124 1959 1 SP EA BERTHA 1959-01-16 23:30:00 TS -15.4136 137.332 993 bom main 68 68 P_____O__PP___ SH091959 -15.3379 137.332 -1 -15.5000 137.300 993 -15.3379 137.332 TC -15.3597 137.367 1 6 315
1959004S14124 1959 1 SP EA BERTHA 1959-01-17 00:00:00 TS -15.3731 137.298 main 68 68 O_____P__OP___ jtwc_sh SH091959 -15.3000 137.300 -1 -15.4480 137.256 -15.3000 137.300 TC -15.3177 137.336 1 6 330
1959004S14124 1959 1 SP EA BERTHA 1959-01-17 03:00:00 TS -15.1009 137.141 main 89 55 P_____P__PP___ SH091959 -15.0425 137.163 -1 -15.1102 137.013 -15.0425 137.163 TC -15.0474 137.174 1 6 336
1959004S14124 1959 1 SP EA BERTHA 1959-01-17 06:00:00 TS -14.8353 137.044 main 55 33 O_____P__OP___ jtwc_sh SH091959 -14.8000 137.100 -1 -14.7662 136.826 -14.8000 137.100 TC -14.7830 137.075 1 5 344
1959004S14124 1959 1 SP EA BERTHA 1959-01-17 09:00:00 TS -14.6103 136.996 main 33 22 P_____P__PP___ SH091959 -14.5975 137.055 -1 -14.4686 136.724 -14.5975 137.055 TC -14.5777 137.058 1 4 352
1959004S14124 1959 1 SP EA BERTHA 1959-01-17 11:00:00 TS -14.5072 137.011 main 22 22 P_____P__PO___ SH091959 -14.5162 137.072 -1 -14.3218 136.719 -14.5162 137.072 TC -14.5000 137.100 1 3 13
1959004S14124 1959 1 SP EA BERTHA 1959-01-17 12:00:00 TS -14.4767 137.034 main 22 22 O_____P__OP___ jtwc_sh SH091959 -14.5000 137.100 -1 -14.2698 136.738 -14.5000 137.100 TC -14.4898 137.131 1 2 75
1959004S14124 1959 1 SP EA BERTHA 1959-01-17 15:00:00 TS -14.4668 137.171 main 31 31 P_____P__PP___ SH091959 -14.5475 137.248 -1 -14.2221 136.898 -14.5475 137.248 TC -14.5342 137.293 1 3 100
1959004S14124 1959 1 SP EA BERTHA 1959-01-17 17:00:00 TS -14.5238 137.322 994 bom main 39 39 P_____O__PP___ SH091959 -14.6421 137.406 -1 -14.3000 137.100 994 -14.6421 137.406 TC -14.6148 137.450 1 5 114
1959004S14124 1959 1 SP EA BERTHA 1959-01-17 18:00:00 TS -14.5708 137.416 main 54 54 O_____P__OP___ jtwc_sh SH091959 -14.7000 137.500 -1 -14.3868 137.237 994 -14.7000 137.500 TC -14.6670 137.542 1 7 121
1959004S14124 1959 1 SP EA BERTHA 1959-01-17 21:00:00 TS -14.7673 137.747 main 93 102 P_____P__PP___ SH091959 -14.8850 137.813 -1 -14.7406 137.740 994 -14.8850 137.813 TC -14.8569 137.859 1 8 122
1959004S14124 1959 1 SP EA BERTHA 1959-01-17 23:00:00 TS -14.9236 138.004 994 bom main 126 126 P_____O__PO___ SH091959 -15.0280 138.064 -1 -15.0000 138.100 994 -15.0280 138.064 TC -15.0000 138.100 1 9 122
1959004S14124 1959 1 SP EA BERTHA 1959-01-18 00:00:00 TS -15.0036 138.132 main 140 132 O_____P__OP___ jtwc_sh SH091959 -15.1000 138.200 -1 -15.1302 138.242 -15.1000 138.200 TC -15.0678 138.220 1 9 123
1959004S14124 1959 1 SP EA BERTHA 1959-01-18 03:00:00 TS -15.2505 138.533 main 132 139 P_____P__PP___ SH091959 -15.2925 138.643 -1 -15.5398 138.617 -15.2925 138.643 TC -15.2959 138.622 1 9 123
1959004S14124 1959 1 SP EA BERTHA 1959-01-18 06:00:00 TS -15.5140 138.948 main 148 127 O_____P__OP___ jtwc_sh SH091959 -15.5000 139.100 -1 -15.9471 138.940 -15.5000 139.100 TC -15.5387 139.061 1 10 125
1959004S14124 1959 1 SP EA BERTHA 1959-01-18 09:00:00 TS -15.7934 139.351 main 130 119 P_____P__PP___ SH091959 -15.7649 139.515 -1 -16.3125 139.241 -15.7649 139.515 TC -15.7682 139.509 1 9 125
1959004S14124 1959 1 SP EA BERTHA 1959-01-18 11:00:00 TS -15.9629 139.615 main 119 119 P_____P__PO___ SH091959 -15.9311 139.775 -1 -16.5132 139.444 -15.9311 139.775 TC -15.9000 139.800 2 9 123
1959004S14124 1959 1 SP EA BERTHA 1959-01-18 12:00:00 TS -16.0358 139.742 main 123 119 O_____P__OP___ jtwc_sh SH091959 -16.0000 139.900 -1 -16.5963 139.549 -16.0000 139.900 TC -15.9547 139.921 2 8 116
1959004S14124 1959 1 SP EA BERTHA 1959-01-18 15:00:00 TS -16.1980 140.112 main 130 86 P_____P__PP___ SH091959 -16.1298 140.243 -1 -16.7583 139.893 -16.1298 140.243 TC -16.0935 140.267 2 8 109
1959004S14124 1959 1 SP EA BERTHA 1959-01-18 18:00:00 TS -16.2885 140.502 main 86 44 O_____P__OP___ jtwc_sh SH091959 -16.2000 140.600 -1 -16.7585 140.302 -16.2000 140.600 TC -16.1970 140.617 2 8 99
1959004S14124 1959 1 SP EA BERTHA 1959-01-18 21:00:00 TS -16.3178 140.939 main 44 33 P_____P__PP___ SH091959 -16.2648 141.013 -1 -16.5562 140.805 -16.2648 141.013 TC -16.2685 141.004 2 8 93
1959004S14124 1959 1 SP EA BERTHA 1959-01-18 21:30:00 TS -16.3149 141.017 995 bom main 33 10 P_____O__PP___ SH091959 -16.2727 141.088 -1 -16.5000 140.900 995 -16.2727 141.088 TC -16.2776 141.075 2 9 86
1959004S14124 1959 1 SP EA BERTHA 1959-01-18 23:00:00 TS -16.2943 141.262 995 bom main 10 0 P_____O__PO___ SH091959 -16.2916 141.328 -1 -16.3000 141.200 995 -16.2916 141.328 TC -16.3000 141.300 2 10 85
1959004S14124 1959 1 SP EA BERTHA 1959-01-19 00:00:00 TS -16.2816 141.429 main 0 0 O_____P__OP___ jtwc_sh SH091959 -16.3000 141.500 -1 -16.1995 141.375 994 -16.3000 141.500 TC -16.3086 141.470 2 10 86
1959004S14124 1959 1 SP EA BERTHA 1959-01-19 03:00:00 TS -16.2461 141.932 main 0 0 P_____P__PP___ SH091959 -16.3075 142.078 -1 -16.0703 141.783 993 -16.3075 142.078 TC -16.3102 142.030 2 10 87
1959004S14124 1959 1 SP EA BERTHA 1959-01-19 05:00:00 TS -16.2415 142.276 992 bom main 0 0 P_____O__PP___ SH091959 -16.3026 142.492 -1 -16.1000 142.000 992 -16.3026 142.492 TC -16.3003 142.434 2 10 90
1959004S14124 1959 1 SP EA BERTHA 1959-01-19 06:00:00 TS -16.2501 142.442 main 0 0 O_____P__OP___ jtwc_sh SH091959 -16.3000 142.700 -1 -16.1555 142.067 992 -16.3000 142.700 TC -16.2949 142.642 2 9 96
1959004S14124 1959 1 SP EA BERTHA 1959-01-19 09:00:00 TS -16.3068 142.931 main 0 0 P_____P__PP___ SH091959 -16.2848 143.300 -1 -16.4040 142.276 992 -16.2848 143.300 TC -16.2877 143.277 2 10 97
1959004S14124 1959 1 SP EA BERTHA 1959-01-19 11:00:00 TS -16.3464 143.303 992 bom main 0 0 P_____O__PO___ SH091959 -16.2885 143.700 -1 -16.5000 142.600 992 -16.2885 143.700 TC -16.3000 143.700 1 11 94
1959004S14124 1959 1 SP EA BERTHA 1959-01-19 12:00:00 TS -16.3496 143.524 main 0 0 O_____P__OP___ jtwc_sh SH091959 -16.3000 143.900 -1 -16.4201 142.943 991 -16.3000 143.900 TC -16.3278 143.878 1 14 91
1959004S14124 1959 1 SP EA BERTHA 1959-01-19 15:00:00 TS -16.3626 144.244 main 0 0 P_____P__PP___ SH091959 -16.3848 144.500 -1 -16.0693 144.212 988 -16.3848 144.500 TC -16.4369 144.401 1 14 93
1959004S14124 1959 1 SP EA BERTHA 1959-01-19 17:00:00 TS -16.4155 144.713 986 bom main 0 0 P_____O__PP___ SH091959 -16.4613 144.900 -1 -16.0000 144.900 986 -16.4613 144.900 TC -16.5189 144.764 1 13 99
1959004S14124 1959 1 SP EA BERTHA 1959-01-19 18:00:00 TS -16.4662 144.922 main 0 0 O_____P__OP___ jtwc_sh SH091959 -16.5000 145.100 -1 -16.0878 145.080 985 -16.5000 145.100 TC -16.5590 144.956 1 12 106
1959004S14124 1959 1 SP EA BERTHA 1959-01-19 19:30:00 TS -16.5598 145.223 985 bom main 0 0 P_____O__PP___ SH091959 -16.5657 145.363 -1 -16.3000 145.300 985 -16.5657 145.363 TC -16.6145 145.262 1 13 108
1959004S14124 1959 1 SP EA BERTHA 1959-01-19 21:00:00 TS -16.6599 145.545 main 0 0 P_____P__PP___ SH091959 -16.6291 145.632 -1 -16.5664 145.532 984 -16.6291 145.632 TC -16.6606 145.597 1 14 105
1959004S14124 1959 1 SP EA BERTHA 1959-01-19 23:00:00 TS -16.7712 146.056 984 bom main 30 30 P_____O__PO___ SH091959 -16.6889 146.048 -1 -16.9000 146.000 984 -16.6889 146.048 TC -16.7000 146.100 1 16 99
1959004S14124 1959 1 SP EA BERTHA 1959-01-20 00:00:00 TS -16.7911 146.386 main 57 57 O_____P__OP___ jtwc_sh SH091959 -16.7000 146.300 -1 -16.9751 146.433 983 -16.7000 146.300 TC -16.6806 146.396 1 23 89
1959004S14124 1959 1 SP EA BERTHA 1959-01-20 03:00:00 TS -16.7376 147.622 main 177 187 P_____P__PP___ SH091959 -16.6227 147.276 -1 -16.9681 148.153 981 -16.6227 147.276 TC -16.5759 147.384 1 24 87
1959004S14124 1959 1 SP EA BERTHA 1959-01-20 05:00:00 TS -16.6724 148.467 980 bom main 266 266 P_____O__PP___ SH091959 -16.5381 148.021 -1 -16.9000 149.200 980 4 -16.5381 148.021 TC -16.4923 148.100 1 23 86
1959004S14124 1959 1 SP EA BERTHA 1959-01-20 06:00:00 TS -16.6505 148.828 main 297 310 O_____P__OP___ jtwc_sh SH091959 -16.5000 148.400 -1 -16.8986 149.474 980 -16.5000 148.400 TC -16.4539 148.468 1 18 87
1959004S14124 1959 1 SP EA BERTHA 1959-01-20 09:00:00 TS -16.6071 149.736 main 393 403 P_____P__PP___ SH091959 -16.3824 149.516 -1 -16.9270 149.961 980 -16.3824 149.516 TC -16.3836 149.579 1 17 89
1959004S14124 1959 1 SP EA BERTHA 1959-01-20 11:00:00 TS -16.6359 150.315 980 bom main 435 436 P_____O__PO___ SH091959 -16.3683 150.248 -1 -17.0000 150.300 980 -16.3683 150.248 TC -16.4000 150.300 2 17 95
1959004S14124 1959 1 SP EA BERTHA 1959-01-20 12:00:00 TS -16.6863 150.624 main 441 447 O_____P__OP___ jtwc_sh SH091959 -16.4000 150.600 -1 -17.0635 150.609 980 -16.4000 150.600 TC -16.4680 150.613 2 19 105
1959004S14124 1959 1 SP EA BERTHA 1959-01-20 15:00:00 TS -16.9684 151.611 main 472 479 P_____P__PP___ SH091959 -16.7041 151.564 -1 -17.3201 151.722 982 -16.7041 151.564 TC -16.7637 151.523 2 20 108
1959004S14124 1959 1 SP EA BERTHA 1959-01-20 17:00:00 TS -17.1949 152.284 984 bom main 506 506 P_____O__PP___ SH091959 -16.9733 152.185 -1 -17.5000 152.500 984 -16.9733 152.185 TC -17.0019 152.127 2 20 109
1959004S14124 1959 1 SP EA BERTHA 1959-01-20 18:00:00 TS -17.3023 152.612 main 522 530 O_____P__OP___ jtwc_sh SH091959 -17.1000 152.500 -1 -17.5886 152.828 984 -17.1000 152.500 TC -17.1226 152.434 2 20 107
1959004S14124 1959 1 SP EA BERTHA 1959-01-20 21:00:00 TS -17.5665 153.596 main 588 597 P_____P__PP___ SH091959 -17.4239 153.447 -1 -17.8219 153.793 987 -17.4239 153.447 TC -17.4488 153.400 2 20 103
1959004S14124 1959 1 SP EA BERTHA 1959-01-20 23:00:00 TS -17.6804 154.298 990 bom main 646 652 P_____O__PO___ SH091959 -17.5669 154.129 -1 -17.9000 154.500 990 -17.5669 154.129 TC -17.6000 154.100 1 21 96
1959004S14124 1959 1 SP EA BERTHA 1959-01-21 00:00:00 TS -17.6846 154.691 main 671 677 O_____P__OP___ jtwc_sh SH091959 -17.6000 154.500 -1 -17.8493 154.936 990 -17.6000 154.500 TC -17.5739 154.520 1 25 86
1959004S14124 1959 1 SP EA BERTHA 1959-01-21 03:00:00 TS -17.5504 156.034 main 771 766 P_____P__PP___ SH091959 -17.4877 155.772 -1 -17.5219 156.402 992 -17.4877 155.772 TC -17.3872 155.865 1 26 83
1959004S14124 1959 1 SP EA BERTHA 1959-01-21 06:00:00 TS -17.3761 157.435 main 766 642 O_____P__OP___ jtwc_sh SH091959 -17.3000 157.100 -1 -17.1688 157.930 994 -17.3000 157.100 TC -17.1685 157.232 1 26 85
1959004S14124 1959 1 SP EA BERTHA 1959-01-21 09:00:00 TS -17.3036 158.751 996 bom main 642 573 P_____O__PP___ SH091959 -17.1275 158.377 -1 -17.1000 159.300 996 -17.1275 158.377 TC -17.0894 158.487 1 24 92
1959004S14124 1959 1 SP EA BERTHA 1959-01-21 11:00:00 TS -17.4300 159.539 main 573 526 P_____P__PO___ SH091959 -17.1780 159.152 -1 -17.3791 160.148 996 -17.1780 159.152 TC -17.2000 159.200 1 22 104
1959004S14124 1959 1 SP EA BERTHA 1959-01-21 12:00:00 TS -17.5762 159.892 main 526 403 O_____P__OP___ jtwc_sh SH091959 -17.3000 159.500 -1 -17.5821 160.533 996 -17.3000 159.500 TC -17.3913 159.515 1 22 127
1959004S14124 1959 1 SP MM BERTHA 1959-01-21 15:00:00 TS -18.3287 160.782 main 403 327 P_____P__PP___ SH091959 -18.1872 160.455 -1 -18.3753 161.424 996 -18.1872 160.455 TC -18.1954 160.321 1 22 139
1959004S14124 1959 1 SP MM BERTHA 1959-01-21 17:00:00 TS -18.9612 161.169 996 bom main 327 303 P_____O__PP___ SH091959 -18.9427 160.927 -1 -19.0000 161.700 996 -18.9427 160.927 TC -18.8481 160.740 1 21 154
1959004S14124 1959 1 SP MM BERTHA 1959-01-21 18:00:00 TS -19.2835 161.285 main 303 271 O_____P__OP___ jtwc_sh SH091959 -19.3000 161.100 -1 -19.3308 161.714 996 -19.3000 161.100 TC -19.1868 160.913 1 19 171
1959004S14124 1959 1 SP MM BERTHA 1959-01-21 21:00:00 TS -20.2003 161.365 main 271 271 P_____P__PP___ SH091959 -20.1543 161.401 -1 -20.3805 161.375 996 -20.1543 161.401 TC -20.1611 161.282 1 18 181
1959004S14124 1959 1 SP MM BERTHA 1959-01-21 23:00:00 TS -20.7365 161.278 996 bom main 284 286 P_____O__PO___ SH091959 -20.6142 161.425 -1 -21.0000 161.000 996 -20.6142 161.425 TC -20.7000 161.400 1 15 189
1959004S14124 1959 1 SP MM BERTHA 1959-01-22 00:00:00 TS -20.9401 161.245 main 299 301 O_____P__OP___ jtwc_sh SH091959 -20.8000 161.400 -1 -21.2453 160.855 996 -20.8000 161.400 TC -20.8751 161.438 1 10 197
1959004S14124 1959 1 SP MM BERTHA 1959-01-22 03:00:00 TS -21.3621 161.074 main 325 325 P_____P__PP___ SH091959 -21.1974 161.268 -1 -21.7897 160.380 996 -21.1974 161.268 TC -21.2637 161.382 1 8 215
1959004S14124 1959 1 SP MM BERTHA 1959-01-22 06:00:00 TS -21.5932 160.759 main 362 372 O_____P__OP___ jtwc_sh SH091959 -21.4000 161.000 -1 -22.0894 159.903 996 -21.4000 161.000 TC -21.4835 161.132 1 7 239
1959004S14124 1959 1 SP MM BERTHA 1959-01-22 09:00:00 TS -21.7176 160.428 996 bom main 405 405 P_____O__PP___ SH091959 -21.5450 160.722 -1 -22.2000 159.500 996 -21.5450 160.722 TC -21.5806 160.767 1 6 254
1959004S14124 1959 1 SP MM BERTHA 1959-01-22 11:00:00 TS -21.7430 160.207 main 424 424 P_____P__PO___ SH091959 -21.5886 160.511 -1 -22.1950 159.305 -21.5886 160.511 TC -21.6000 160.500 1 7 262
1959004S14124 1959 1 SP MM BERTHA 1959-01-22 12:00:00 TS -21.7640 160.056 main 438 447 O_____P__OP___ jtwc_sh SH091959 -21.6000 160.400 -1 -22.1730 159.229 -21.6000 160.400 TC -21.6011 160.367 1 7 270
1959004S14124 1959 1 SP EA BERTHA 1959-01-22 15:00:00 TS -21.7435 159.704 main 472 472 P_____P__PP___ SH091959 -21.6101 160.055 -1 -22.0419 159.076 -21.6101 160.055 TC -21.5784 159.981 1 6 280
1959004S14124 1959 1 SP EA BERTHA 1959-01-22 18:00:00 TS -21.6602 159.406 main 502 499 O_____P__OP___ jtwc_sh SH091959 -21.6000 159.700 -1 -21.8352 159.009 -21.6000 159.700 TC -21.5255 159.607 1 6 293
1959004S14124 1959 1 SP EA BERTHA 1959-01-22 21:00:00 NR -21.5174 159.118 main 526 526 ______P___P___ SH091959 -1 -21.5814 158.995 TC -21.4533 159.241 1 6 305
1959004S14124 1959 1 SP EA BERTHA 1959-01-22 23:00:00 NR -21.4000 159.000 998 bom main 533 ______O___O___ SH091959 -1 -21.4000 159.000 998 TC -21.4000 159.000 1 5 316

About IBTrACS Database

This database is a web-friendly format of International Best Track Archive for Climate Stewardship (IBTrACS), a global best track data archive curated by NOAA dating back to 1842.

Updated: 2021-10-21